TGPY/GND METAR and TAF weather

Enter ICAO airport designator
Station Type Date Time Source
TGPY METAR 2019/11/22 01:00 UTC NOAA

TGPY 220100Z 06005KT 9999 FEW018 25/24 Q1011


Station Type Date Time Source
TGPY Decoded METAR 2019/11/22 01:00 UTC NOAA

Point Salines Airport, Grenada (TGPY) 12-00N 061-47W 7M
Nov 21, 2019 - 08:00 PM EST / 2019.11.22 0100 UTC
Wind: from the ENE (060 degrees) at 6 MPH (5 KT):0
Visibility: greater than 7 mile(s):0
Sky conditions: mostly clear
Temperature: 77 F (25 C)
Dew Point: 75 F (24 C)
Relative Humidity: 94%
Pressure (altimeter): 29.85 in. Hg (1011 hPa)
ob: TGPY 220100Z 06005KT 9999 FEW018 25/24 Q1011
cycle: 1

Station Type Date Time Source
TGPY TAF 2019/11/21 18:40 UTC NOAA

TAF TGPY 211600Z 2118/2218 09008KT 9999 FEW018 SCT038 PROB30
TEMPO 2200/2204 5000 SHRA FEW013CB BKN015 BKN035
TEMPO 2206/2210 00000KT

Example: see airport list